Time;durP1;ratioP1;P1;durP2;ratioP2;P2;SDS_P1;SDS_P2;PMS_P1;PMS_P2;Temp;Humidity;BMP_temperature;BMP_pressure;BME280_temperature;BME280_humidity;BME280_pressure;Samples;Min_cycle;Max_cycle;Signal;HPM_P1;HPM_P2
2022/12/22 03:26:28;;;;;;;2.00;1.20;;;10.00;99.90;;;;;;5030373;28;20914;-39
2022/12/22 03:28:54;;;;;;;2.10;1.70;;;10.00;99.90;;;;;;5030021;28;20440;-39
2022/12/22 03:31:19;;;;;;;1.60;1.50;;;10.00;99.90;;;;;;5029862;28;20928;-41
2022/12/22 03:33:45;;;;;;;2.13;1.40;;;10.00;99.90;;;;;;5029418;28;20428;-39
2022/12/22 03:36:10;;;;;;;1.30;1.20;;;10.00;99.90;;;;;;5029564;28;20178;-38
2022/12/22 03:38:36;;;;;;;1.60;1.50;;;10.00;99.90;;;;;;5030169;28;20218;-39
2022/12/22 03:41:02;;;;;;;1.30;1.20;;;10.00;99.90;;;;;;5042924;28;20178;-41
2022/12/22 03:46:30;;;;;;;1.20;1.10;;;10.00;99.90;;;;;;5049591;28;20277;-40
2022/12/22 03:49:09;;;;;;;1.30;1.00;;;10.00;99.90;;;;;;5049962;28;20423;-40
2022/12/22 03:51:38;;;;;;;1.10;1.00;;;10.00;99.90;;;;;;5049744;28;20613;-40
2022/12/22 03:54:04;;;;;;;1.00;0.90;;;10.00;99.90;;;;;;5048871;28;20447;-39
2022/12/22 03:56:30;;;;;;;2.37;1.00;;;10.00;99.90;;;;;;5049352;28;20424;-39
2022/12/22 03:58:55;;;;;;;1.10;1.00;;;10.00;99.90;;;;;;5049788;28;20293;-38
2022/12/22 04:01:21;;;;;;;1.40;1.00;;;10.00;99.90;;;;;;5049755;28;20419;-39
2022/12/22 04:03:48;;;;;;;1.10;1.00;;;10.00;99.90;;;;;;5048238;28;20207;-40
2022/12/22 04:06:14;;;;;;;1.07;0.97;;;10.00;99.90;;;;;;5049750;28;20189;-40
2022/12/22 04:08:39;;;;;;;1.83;1.10;;;10.00;99.90;;;;;;5048714;28;20423;-39
2022/12/22 04:13:49;;;;;;;1.67;1.17;;;10.10;99.90;;;;;;5048387;28;20205;-41
2022/12/22 04:16:15;;;;;;;1.00;0.90;;;10.10;99.90;;;;;;5049709;28;20447;-38
2022/12/22 04:18:41;;;;;;;1.00;0.90;;;10.10;99.90;;;;;;5049071;28;20213;-41
2022/12/22 04:21:06;;;;;;;0.97;0.87;;;10.10;99.90;;;;;;5048826;28;20533;-42
2022/12/22 04:23:32;;;;;;;1.30;1.20;;;10.10;99.90;;;;;;5048436;28;20274;-39
2022/12/22 04:25:59;;;;;;;1.07;0.97;;;10.10;99.90;;;;;;5048921;28;20212;-41
2022/12/22 04:28:24;;;;;;;1.20;1.13;;;10.10;99.90;;;;;;5049107;28;20169;-43
2022/12/22 04:30:50;;;;;;;0.90;0.90;;;10.10;99.90;;;;;;5049108;28;20444;-40
2022/12/22 04:33:16;;;;;;;1.73;1.10;;;10.10;99.90;;;;;;5046871;28;20178;-39
2022/12/22 04:35:42;;;;;;;1.17;1.07;;;10.10;99.90;;;;;;5048736;28;20717;-41
2022/12/22 04:38:08;;;;;;;1.33;1.23;;;10.20;99.90;;;;;;5048310;28;20520;-43
2022/12/22 04:40:35;;;;;;;1.10;1.00;;;10.20;99.90;;;;;;5049069;28;20497;-40
2022/12/22 04:43:00;;;;;;;1.00;0.93;;;10.20;99.90;;;;;;5047962;28;20174;-40
2022/12/22 04:45:26;;;;;;;1.10;1.00;;;10.20;99.90;;;;;;5045813;28;20416;-39
2022/12/22 04:47:52;;;;;;;1.33;1.23;;;10.20;99.90;;;;;;5047749;28;20420;-41
2022/12/22 04:50:17;;;;;;;1.30;1.20;;;10.10;99.90;;;;;;5048481;28;20257;-38
2022/12/22 04:52:43;;;;;;;1.20;1.10;;;10.20;99.90;;;;;;5048656;28;20214;-41
2022/12/22 04:55:09;;;;;;;1.10;0.97;;;10.10;99.90;;;;;;5047622;28;20678;-40
2022/12/22 04:57:35;;;;;;;0.87;0.87;;;10.20;99.90;;;;;;5048566;28;20201;-41
2022/12/22 05:00:01;;;;;;;1.63;1.13;;;10.20;99.90;;;;;;5048519;28;20532;-41
2022/12/22 05:02:27;;;;;;;1.00;1.00;;;10.20;99.90;;;;;;5048688;28;20173;-41
2022/12/22 05:04:53;;;;;;;1.33;1.00;;;10.20;99.90;;;;;;5046973;28;20436;-41
2022/12/22 05:07:19;;;;;;;2.13;1.00;;;10.20;99.90;;;;;;5048432;28;20213;-43
2022/12/22 05:09:46;;;;;;;0.90;0.80;;;10.20;99.90;;;;;;5048337;28;20225;-42
2022/12/22 05:14:56;;;;;;;1.03;1.00;;;10.20;99.90;;;;;;5047692;28;20223;-42
2022/12/22 05:17:22;;;;;;;0.80;0.73;;;10.20;99.90;;;;;;5046538;28;20958;-43
2022/12/22 05:19:47;;;;;;;0.90;0.60;;;10.20;99.90;;;;;;5048077;28;20181;-41
2022/12/22 05:22:13;;;;;;;1.33;1.03;;;10.20;99.90;;;;;;5048140;28;20192;-41
2022/12/22 05:24:39;;;;;;;0.70;0.60;;;10.20;99.90;;;;;;5047420;28;20178;-41
2022/12/22 05:27:04;;;;;;;1.13;0.90;;;10.20;99.90;;;;;;5047893;28;20174;-43
2022/12/22 05:29:30;;;;;;;0.77;0.67;;;10.20;99.90;;;;;;5046827;28;20357;-43
2022/12/22 05:31:56;;;;;;;0.60;0.60;;;10.20;99.90;;;;;;5046832;28;20193;-43
2022/12/22 05:34:21;;;;;;;0.80;0.63;;;10.20;99.90;;;;;;5047023;28;20616;-42
2022/12/22 05:36:47;;;;;;;0.87;0.67;;;10.20;99.90;;;;;;5048220;28;20186;-42
2022/12/22 05:39:13;;;;;;;0.87;0.67;;;10.20;99.90;;;;;;5047774;28;20229;-42
2022/12/22 05:41:38;;;;;;;1.37;0.80;;;10.20;99.90;;;;;;5048123;28;20188;-42
2022/12/22 05:44:04;;;;;;;0.70;0.70;;;10.20;99.90;;;;;;5043147;28;20673;-42
2022/12/22 05:46:30;;;;;;;0.70;0.70;;;10.20;99.90;;;;;;5039814;28;20586;-41
2022/12/22 05:48:55;;;;;;;0.83;0.80;;;10.20;99.90;;;;;;5047377;28;20285;-42
2022/12/22 05:51:21;;;;;;;0.83;0.80;;;10.20;99.90;;;;;;5045116;28;20283;-42
2022/12/22 05:53:47;;;;;;;1.50;0.90;;;10.30;99.90;;;;;;5045627;28;20205;-41
2022/12/22 05:56:12;;;;;;;1.00;0.90;;;10.20;99.90;;;;;;5047448;28;20349;-42
2022/12/22 05:58:38;;;;;;;2.20;0.70;;;10.20;99.90;;;;;;5049671;28;20239;-41
2022/12/22 06:01:04;;;;;;;1.80;0.87;;;10.20;99.90;;;;;;5049862;28;20660;-41
2022/12/22 06:03:30;;;;;;;1.10;1.00;;;10.30;99.90;;;;;;5050811;28;20836;-43
2022/12/22 06:05:56;;;;;;;1.70;1.33;;;10.20;99.90;;;;;;5051662;28;20440;-40
2022/12/22 06:08:23;;;;;;;1.83;0.90;;;10.20;99.90;;;;;;5051361;28;20572;-42
2022/12/22 06:10:48;;;;;;;1.17;0.80;;;10.30;99.90;;;;;;5051061;28;20810;-43
2022/12/22 06:13:14;;;;;;;1.30;1.20;;;10.30;99.90;;;;;;5050111;28;20420;-43
2022/12/22 06:15:40;;;;;;;1.70;0.87;;;10.30;99.90;;;;;;5051449;28;20231;-43
2022/12/22 06:18:06;;;;;;;1.40;1.13;;;10.20;99.90;;;;;;5050509;28;20460;-43
2022/12/22 06:20:31;;;;;;;2.03;1.83;;;10.30;99.90;;;;;;5051044;28;20182;-43
2022/12/22 06:22:57;;;;;;;1.30;1.20;;;10.20;99.90;;;;;;5050354;28;20181;-43
2022/12/22 06:25:23;;;;;;;1.13;1.03;;;10.20;99.90;;;;;;5050447;28;20182;-42
2022/12/22 06:27:48;;;;;;;1.47;1.37;;;10.30;99.90;;;;;;5050621;28;20182;-40
2022/12/22 06:30:15;;;;;;;1.77;1.30;;;10.30;99.90;;;;;;5048520;28;20197;-42
2022/12/22 06:32:41;;;;;;;1.57;1.33;;;10.30;99.90;;;;;;5044370;28;20370;-41
2022/12/22 06:35:08;;;;;;;1.60;1.50;;;10.30;99.90;;;;;;5049712;28;20510;-42
2022/12/22 06:37:33;;;;;;;1.53;1.43;;;10.30;99.90;;;;;;5050543;28;20302;-43
2022/12/22 06:39:59;;;;;;;2.03;1.50;;;10.30;99.90;;;;;;5051001;28;20481;-42
2022/12/22 06:45:10;;;;;;;1.53;1.40;;;10.30;99.90;;;;;;5046964;28;20548;-42
2022/12/22 06:47:35;;;;;;;1.97;1.63;;;10.30;99.90;;;;;;5050212;28;20432;-42
2022/12/22 06:50:01;;;;;;;2.00;1.80;;;10.30;99.90;;;;;;5050605;28;20428;-43
2022/12/22 06:52:26;;;;;;;1.87;1.63;;;10.30;99.90;;;;;;5050142;28;20204;-43
2022/12/22 06:54:52;;;;;;;1.93;1.73;;;10.30;99.90;;;;;;5049898;28;20186;-41
2022/12/22 06:57:18;;;;;;;5.50;1.70;;;10.30;99.90;;;;;;5050050;28;20190;-42
2022/12/22 06:59:43;;;;;;;2.90;1.90;;;10.30;99.90;;;;;;5049938;28;20174;-38
2022/12/22 07:02:10;;;;;;;2.70;2.50;;;10.30;99.90;;;;;;5050347;28;20190;-42
2022/12/22 07:04:36;;;;;;;3.47;2.80;;;10.30;99.90;;;;;;5049047;28;20581;-42
2022/12/22 07:07:02;;;;;;;4.63;4.23;;;10.30;99.90;;;;;;5050293;28;20413;-41
2022/12/22 07:09:28;;;;;;;4.60;4.10;;;10.30;99.90;;;;;;5046187;28;20560;-43
2022/12/22 07:11:54;;;;;;;5.60;5.10;;;10.30;99.90;;;;;;5046585;28;20440;-43
2022/12/22 07:14:20;;;;;;;7.20;5.73;;;10.30;99.90;;;;;;5046803;28;20185;-43
2022/12/22 07:16:46;;;;;;;6.17;5.37;;;10.40;99.90;;;;;;5048853;28;20185;-41
2022/12/22 07:19:12;;;;;;;7.10;5.10;;;10.40;99.90;;;;;;5050229;28;20447;-42
2022/12/22 07:21:38;;;;;;;6.30;5.70;;;10.40;99.90;;;;;;5046357;28;20947;-42
2022/12/22 07:24:04;;;;;;;6.57;5.87;;;10.40;99.90;;;;;;5041617;28;20416;-43
2022/12/22 07:26:30;;;;;;;5.83;5.23;;;10.40;99.90;;;;;;5049800;28;20404;-42
2022/12/22 07:28:56;;;;;;;6.20;5.60;;;10.40;99.90;;;;;;5048980;28;20431;-42
2022/12/22 07:31:22;;;;;;;6.40;5.80;;;10.40;99.90;;;;;;5050414;28;20193;-44
2022/12/22 07:33:47;;;;;;;6.97;6.27;;;10.40;99.90;;;;;;5049091;28;20177;-43
2022/12/22 07:36:16;;;;;;;7.17;6.47;;;10.40;99.90;;;;;;5050391;28;20498;-42
2022/12/22 07:38:45;;;;;;;7.37;6.63;;;10.40;99.90;;;;;;5041983;28;20716;-41
2022/12/22 07:43:59;;;;;;;8.10;7.30;;;10.40;99.90;;;;;;5036716;28;20921;-42
2022/12/22 07:46:26;;;;;;;7.53;6.80;;;10.40;99.90;;;;;;5038934;28;20417;-43
2022/12/22 07:51:39;;;;;;;7.70;6.97;;;10.40;99.90;;;;;;5040690;28;20431;-43
2022/12/22 07:54:06;;;;;;;9.07;7.80;;;10.40;99.90;;;;;;5044155;28;20424;-42
2022/12/22 07:56:32;;;;;;;9.30;8.40;;;10.40;99.90;;;;;;5049908;28;20424;-43
2022/12/22 07:58:58;;;;;;;9.17;8.27;;;10.40;99.90;;;;;;5049689;28;21112;-43
2022/12/22 08:01:24;;;;;;;9.60;8.60;;;10.40;99.90;;;;;;5049370;28;20427;-42
2022/12/22 08:03:50;;;;;;;11.07;9.43;;;10.40;99.90;;;;;;5049334;28;20428;-43
2022/12/22 08:06:16;;;;;;;12.00;10.63;;;10.40;99.90;;;;;;5045682;28;20434;-42
2022/12/22 08:08:42;;;;;;;13.20;11.30;;;10.30;99.90;;;;;;5037933;28;20190;-42
2022/12/22 08:11:08;;;;;;;12.53;10.30;;;10.30;99.90;;;;;;5039551;28;20426;-43
2022/12/22 08:13:34;;;;;;;14.70;11.60;;;10.30;99.90;;;;;;5034084;28;20431;-43
2022/12/22 08:16:07;;;;;;;16.77;12.47;;;10.30;99.90;;;;;;5032180;28;20187;-43
2022/12/22 08:18:34;;;;;;;15.23;12.20;;;10.30;99.90;;;;;;5049061;28;20472;-43
2022/12/22 08:21:01;;;;;;;17.03;12.93;;;10.30;99.90;;;;;;5047642;28;20450;-43
2022/12/22 08:23:27;;;;;;;16.63;13.17;;;10.30;99.90;;;;;;5042500;28;20913;-42
2022/12/22 08:26:09;;;;;;;20.37;15.00;;;10.30;99.90;;;;;;5039001;28;20520;-42
2022/12/22 08:28:39;;;;;;;19.47;15.10;;;10.30;99.90;;;;;;5045531;28;20428;-42
2022/12/22 08:31:06;;;;;;;21.67;14.93;;;10.30;99.90;;;;;;5049107;28;20431;-43
2022/12/22 08:33:31;;;;;;;19.40;15.10;;;10.30;99.90;;;;;;5048131;28;20423;-42
2022/12/22 08:35:58;;;;;;;18.20;14.00;;;10.30;99.90;;;;;;5048737;28;20777;-43
2022/12/22 08:38:24;;;;;;;18.47;14.30;;;10.30;99.90;;;;;;5045673;28;20232;-42
2022/12/22 08:40:50;;;;;;;17.27;12.10;;;10.30;99.90;;;;;;5041318;28;20428;-42
2022/12/22 08:43:16;;;;;;;17.33;13.20;;;10.30;99.90;;;;;;5048314;28;20188;-40
2022/12/22 08:45:42;;;;;;;17.63;12.77;;;10.30;99.90;;;;;;5046107;28;20497;-40
2022/12/22 08:48:09;;;;;;;15.40;12.10;;;10.30;99.90;;;;;;5048286;28;20855;-41
2022/12/22 08:50:35;;;;;;;14.73;11.10;;;10.30;99.90;;;;;;5037640;28;20240;-41
2022/12/22 08:53:05;;;;;;;15.70;11.60;;;10.30;99.90;;;;;;5028275;28;20417;-43
2022/12/22 08:55:31;;;;;;;18.07;12.77;;;10.30;99.90;;;;;;5026877;28;20657;-42
2022/12/22 08:57:56;;;;;;;17.47;11.40;;;10.30;99.90;;;;;;5027544;28;20531;-41
2022/12/22 09:00:23;;;;;;;15.10;11.60;;;10.30;99.90;;;;;;5028698;28;20515;-42
2022/12/22 09:02:48;;;;;;;12.70;10.67;;;10.30;99.90;;;;;;5028082;28;20700;-42
2022/12/22 09:05:14;;;;;;;15.00;11.17;;;10.30;99.90;;;;;;5028044;28;20536;-42
2022/12/22 09:07:40;;;;;;;14.33;11.10;;;10.30;99.90;;;;;;5028462;28;20602;-41
2022/12/22 09:10:08;;;;;;;15.27;11.53;;;10.30;99.90;;;;;;5028499;28;20190;-41
2022/12/22 09:12:34;;;;;;;13.97;11.13;;;10.30;99.90;;;;;;5010672;28;20192;-42
2022/12/22 09:15:00;;;;;;;16.03;11.20;;;10.30;99.90;;;;;;5027176;28;20425;-40
2022/12/22 09:17:26;;;;;;;15.07;12.27;;;10.30;99.90;;;;;;5028137;28;20417;-43
2022/12/22 09:19:51;;;;;;;13.87;10.13;;;10.30;99.90;;;;;;5026689;28;20182;-41
2022/12/22 09:22:17;;;;;;;13.17;10.77;;;10.40;99.90;;;;;;5028305;28;20265;-43
2022/12/22 09:24:43;;;;;;;13.60;10.93;;;10.30;99.90;;;;;;5027568;28;20238;-42
2022/12/22 09:27:09;;;;;;;15.90;11.77;;;10.30;99.90;;;;;;5028076;28;20265;-42
2022/12/22 09:29:39;;;;;;;17.10;11.27;;;10.30;99.90;;;;;;5028064;28;20419;-44
2022/12/22 09:32:05;;;;;;;15.43;10.97;;;10.40;99.90;;;;;;5027844;28;20213;-42
2022/12/22 09:34:30;;;;;;;15.50;11.10;;;10.30;99.90;;;;;;5027147;28;20449;-42
2022/12/22 09:36:56;;;;;;;17.20;11.70;;;10.30;99.90;;;;;;5027901;28;20200;-39
2022/12/22 09:39:22;;;;;;;13.40;10.70;;;10.30;99.90;;;;;;5028059;28;20743;-41
2022/12/22 09:41:50;;;;;;;16.27;11.23;;;10.30;99.90;;;;;;5047136;28;20312;-43
2022/12/22 09:44:23;;;;;;;16.30;11.73;;;10.30;99.90;;;;;;5046094;28;20674;-43
2022/12/22 09:46:49;;;;;;;17.73;12.70;;;10.30;99.90;;;;;;5048382;28;20460;-42
2022/12/22 09:49:17;;;;;;;17.93;12.10;;;10.30;99.90;;;;;;5047622;28;20430;-41
2022/12/22 09:51:51;;;;;;;16.40;12.70;;;10.40;99.90;;;;;;5048116;28;20443;-39
2022/12/22 09:54:17;;;;;;;15.37;11.43;;;10.40;99.90;;;;;;5047004;28;20426;-40
2022/12/22 09:56:43;;;;;;;16.17;11.20;;;10.40;99.90;;;;;;5047953;28;20900;-42
2022/12/22 09:59:11;;;;;;;16.27;11.90;;;10.40;99.90;;;;;;5047495;28;20531;-41
2022/12/22 10:02:02;;;;;;;19.90;12.60;;;10.40;99.90;;;;;;5048292;28;20186;-43
2022/12/22 10:04:28;;;;;;;15.23;11.07;;;10.40;99.90;;;;;;5046659;28;20464;-42
2022/12/22 10:07:05;;;;;;;18.80;12.43;;;10.40;99.90;;;;;;5048315;28;21200;-41
2022/12/22 10:09:31;;;;;;;19.97;13.40;;;10.50;99.90;;;;;;5047803;28;20243;-41
2022/12/22 10:12:00;;;;;;;20.50;14.70;;;10.40;99.90;;;;;;5047584;28;20478;-41
2022/12/22 10:14:37;;;;;;;19.47;14.40;;;10.40;99.90;;;;;;5047010;28;20420;-43
2022/12/22 10:17:24;;;;;;;20.17;13.73;;;10.40;99.90;;;;;;5047411;28;20423;-40
2022/12/22 10:19:52;;;;;;;21.67;15.50;;;10.30;99.90;;;;;;5047493;28;20725;-40
2022/12/22 10:22:30;;;;;;;25.67;15.90;;;10.30;99.90;;;;;;5047329;28;20423;-42
2022/12/22 10:24:59;;;;;;;22.73;15.50;;;10.30;99.90;;;;;;5047004;28;20462;-43
2022/12/22 10:27:29;;;;;;;26.27;17.40;;;10.30;99.90;;;;;;5047158;28;20400;-42
2022/12/22 10:30:22;;;;;;;23.10;16.10;;;10.30;99.90;;;;;;5047285;28;20423;-42
2022/12/22 10:33:09;;;;;;;23.67;16.27;;;10.30;99.90;;;;;;5047324;28;20419;-42
2022/12/22 10:35:44;;;;;;;29.63;17.80;;;10.30;99.90;;;;;;5046335;28;20440;-42
2022/12/22 10:38:30;;;;;;;33.97;19.40;;;10.30;99.90;;;;;;5047480;28;20554;-39
2022/12/22 10:41:20;;;;;;;31.90;22.17;;;10.30;99.90;;;;;;5047600;28;20528;-41
2022/12/22 10:44:23;;;;;;;34.17;22.60;;;10.30;99.90;;;;;;5046807;28;20774;-42
2022/12/22 10:46:52;;;;;;;35.73;24.00;;;10.30;99.90;;;;;;5011521;28;20498;-42
2022/12/22 10:49:28;;;;;;;36.73;25.30;;;10.30;99.90;;;;;;5047257;28;20466;-40
2022/12/22 10:52:07;;;;;;;40.13;27.00;;;10.20;99.90;;;;;;5051242;28;20408;-41
2022/12/22 10:54:35;;;;;;;40.70;26.60;;;10.20;99.90;;;;;;5050568;28;20412;-41
2022/12/22 10:57:23;;;;;;;29.93;20.30;;;10.20;99.90;;;;;;5050693;28;20861;-41
2022/12/22 11:00:26;;;;;;;31.23;20.47;;;10.20;99.90;;;;;;5051127;28;20427;-42
2022/12/22 11:02:55;;;;;;;30.63;19.60;;;10.20;99.90;;;;;;5047379;28;20514;-43
2022/12/22 11:05:21;;;;;;;24.20;17.20;;;10.10;99.90;;;;;;5048905;28;20436;-42
2022/12/22 11:07:47;;;;;;;25.90;17.30;;;10.20;99.90;;;;;;5051002;28;20428;-39
2022/12/22 11:10:37;;;;;;;25.37;17.57;;;10.10;99.90;;;;;;5050898;28;20432;-40
2022/12/22 11:13:03;;;;;;;25.17;17.43;;;10.10;99.90;;;;;;5049909;28;20451;-42
2022/12/22 11:15:50;;;;;;;25.00;16.87;;;10.10;99.90;;;;;;5050778;28;20424;-41
2022/12/22 11:18:41;;;;;;;23.13;15.33;;;10.10;99.90;;;;;;5050648;28;20826;-43
2022/12/22 11:21:29;;;;;;;24.37;16.00;;;10.10;99.90;;;;;;5050947;28;20468;-41
2022/12/22 11:24:24;;;;;;;22.57;15.87;;;10.10;99.90;;;;;;5049822;28;20401;-43
2022/12/22 11:27:24;;;;;;;25.90;17.70;;;10.20;99.90;;;;;;5050829;28;20409;-41
2022/12/22 11:30:01;;;;;;;27.00;18.27;;;10.30;99.90;;;;;;5048998;28;20404;-42
2022/12/22 11:32:30;;;;;;;26.70;18.33;;;10.30;99.90;;;;;;5050135;28;20413;-41
2022/12/22 11:35:16;;;;;;;25.30;19.60;;;10.30;99.90;;;;;;5049389;28;20472;-42
2022/12/22 11:38:08;;;;;;;28.17;20.37;;;10.30;99.90;;;;;;5048721;28;20525;-39
2022/12/22 11:40:39;;;;;;;24.50;17.70;;;10.30;99.90;;;;;;5049873;28;20515;-40
2022/12/22 11:43:24;;;;;;;26.27;17.23;;;10.50;99.90;;;;;;5049393;28;20682;-43
2022/12/22 11:46:07;;;;;;;23.73;17.57;;;10.80;99.90;;;;;;5049626;28;20412;-43
2022/12/22 11:49:02;;;;;;;24.00;16.27;;;10.90;99.90;;;;;;5049757;28;20462;-41
2022/12/22 11:51:38;;;;;;;18.20;13.60;;;10.90;99.90;;;;;;5049841;28;20420;-41
2022/12/22 11:54:18;;;;;;;19.10;13.50;;;11.70;99.90;;;;;;5049204;28;20705;-41
2022/12/22 11:56:50;;;;;;;19.57;13.33;;;11.60;99.90;;;;;;5049831;28;20506;-42
2022/12/22 11:59:32;;;;;;;17.70;12.23;;;11.50;99.90;;;;;;5048031;28;21013;-43
2022/12/22 12:01:57;;;;;;;16.90;12.43;;;11.30;99.90;;;;;;5049818;28;20408;-41
2022/12/22 12:04:38;;;;;;;16.50;10.90;;;11.20;99.90;;;;;;5048584;28;20498;-42
2022/12/22 12:07:40;;;;;;;16.37;11.30;;;11.10;99.90;;;;;;5049402;28;20190;-43
2022/12/22 12:10:27;;;;;;;19.53;12.47;;;11.10;99.90;;;;;;5048874;28;20424;-42
2022/12/22 12:13:02;;;;;;;19.80;12.37;;;11.10;99.90;;;;;;5047942;28;20428;-42
2022/12/22 12:15:46;;;;;;;15.30;10.17;;;11.00;99.90;;;;;;5049041;28;20419;-42
2022/12/22 12:18:31;;;;;;;18.03;11.57;;;11.00;99.90;;;;;;5049014;28;20455;-41
2022/12/22 12:21:20;;;;;;;17.53;10.20;;;10.90;99.90;;;;;;5049121;28;20503;-40
2022/12/22 12:23:56;;;;;;;15.50;11.30;;;10.90;99.90;;;;;;5048582;28;20778;-40
2022/12/22 12:26:27;;;;;;;15.40;10.63;;;10.80;99.90;;;;;;5048952;28;20420;-41
2022/12/22 12:29:05;;;;;;;15.63;11.37;;;10.80;99.90;;;;;;5048941;28;20420;-40
2022/12/22 12:31:36;;;;;;;20.70;10.90;;;10.70;99.90;;;;;;5048953;28;20951;-42
2022/12/22 12:34:03;;;;;;;13.60;9.37;;;10.70;99.90;;;;;;5048433;28;20412;-42
2022/12/22 12:36:46;;;;;;;14.10;9.07;;;10.70;99.90;;;;;;5049154;28;20416;-43
2022/12/22 12:39:35;;;;;;;14.20;8.83;;;10.70;99.90;;;;;;5048581;28;20809;-40
2022/12/22 12:42:32;;;;;;;16.40;9.60;;;10.70;99.90;;;;;;5029491;28;20479;-41
2022/12/22 12:45:01;;;;;;;15.97;11.20;;;10.70;99.90;;;;;;5022771;28;20425;-42
2022/12/22 12:47:28;;;;;;;16.17;10.10;;;10.70;99.90;;;;;;5028719;28;20417;-39
2022/12/22 12:50:19;;;;;;;16.53;10.63;;;10.70;99.90;;;;;;5028418;28;20416;-42
2022/12/22 12:52:47;;;;;;;14.93;10.77;;;10.70;99.90;;;;;;5028921;28;20466;-40
2022/12/22 12:55:32;;;;;;;15.50;11.00;;;10.60;99.90;;;;;;5027801;28;20417;-43
2022/12/22 12:57:59;;;;;;;15.33;11.17;;;10.60;99.90;;;;;;5028907;28;20807;-40
2022/12/22 13:00:34;;;;;;;15.90;10.77;;;10.60;99.90;;;;;;5028368;28;20456;-42
2022/12/22 13:03:28;;;;;;;17.17;10.90;;;10.50;99.90;;;;;;5028514;28;20663;-41
2022/12/22 13:05:56;;;;;;;16.27;11.67;;;10.40;99.90;;;;;;5027992;28;20856;-41
2022/12/22 13:08:25;;;;;;;15.80;11.90;;;10.40;99.90;;;;;;5027498;28;20413;-42
2022/12/22 13:10:54;;;;;;;17.47;13.30;;;10.40;99.90;;;;;;5028472;28;20524;-42
2022/12/22 13:13:25;;;;;;;15.80;12.20;;;10.40;99.90;;;;;;5027819;28;20437;-43
2022/12/22 13:16:03;;;;;;;15.77;11.10;;;10.30;99.90;;;;;;5028434;28;20405;-43
2022/12/22 13:18:44;;;;;;;17.50;12.50;;;10.30;99.90;;;;;;5028164;28;20456;-42
2022/12/22 13:21:21;;;;;;;21.70;11.83;;;10.30;99.90;;;;;;5028275;28;20475;-39
2022/12/22 13:24:08;;;;;;;18.50;12.03;;;10.30;99.90;;;;;;5027710;28;20411;-41
2022/12/22 13:26:36;;;;;;;16.57;12.33;;;10.40;99.90;;;;;;5028415;28;20405;-42
2022/12/22 13:29:20;;;;;;;17.90;11.97;;;10.40;99.90;;;;;;5026636;28;20424;-40
2022/12/22 13:32:02;;;;;;;14.73;11.30;;;10.40;99.90;;;;;;5028336;28;21075;-42
2022/12/22 13:35:00;;;;;;;16.00;11.00;;;10.40;99.90;;;;;;5027307;28;20516;-42
2022/12/22 13:37:27;;;;;;;12.50;9.83;;;10.40;99.90;;;;;;5028033;28;20524;-42
2022/12/22 13:40:09;;;;;;;14.43;10.53;;;10.40;99.90;;;;;;5031415;28;20428;-41
2022/12/22 13:42:45;;;;;;;16.73;11.67;;;10.30;99.90;;;;;;5048280;28;20420;-43
2022/12/22 13:45:34;;;;;;;13.97;10.07;;;10.30;99.90;;;;;;5046370;28;20408;-41
2022/12/22 13:48:06;;;;;;;13.50;11.10;;;10.30;99.90;;;;;;5047959;28;20427;-39
2022/12/22 13:50:35;;;;;;;15.90;11.23;;;10.30;99.90;;;;;;5047903;28;20835;-41
2022/12/22 13:53:04;;;;;;;15.67;10.23;;;10.30;99.90;;;;;;5047339;28;20421;-41
2022/12/22 13:55:31;;;;;;;17.40;11.13;;;10.20;99.90;;;;;;5047889;28;20466;-43
2022/12/22 13:58:24;;;;;;;16.10;11.47;;;10.20;99.90;;;;;;5046379;28;20826;-43
2022/12/22 14:01:00;;;;;;;16.97;11.60;;;10.20;99.90;;;;;;5046541;28;20431;-41
2022/12/22 14:03:26;;;;;;;14.63;11.63;;;10.30;99.90;;;;;;5047179;28;20790;-42
2022/12/22 14:05:52;;;;;;;17.63;12.00;;;10.20;99.90;;;;;;5047630;28;20497;-42
2022/12/22 14:08:21;;;;;;;15.80;12.07;;;10.30;99.90;;;;;;5047648;28;20680;-42
2022/12/22 14:10:48;;;;;;;14.07;11.17;;;10.20;99.90;;;;;;5047599;28;20529;-39
2022/12/22 14:13:17;;;;;;;15.70;12.30;;;10.20;99.90;;;;;;5047097;28;20427;-42
2022/12/22 14:15:44;;;;;;;16.07;11.70;;;10.20;99.90;;;;;;5047734;28;20435;-41
2022/12/22 14:18:20;;;;;;;15.87;12.30;;;10.20;99.90;;;;;;5047620;28;20772;-41
2022/12/22 14:20:47;;;;;;;15.93;11.57;;;10.20;99.90;;;;;;5050974;28;20415;-42
2022/12/22 14:23:25;;;;;;;15.83;11.43;;;10.20;99.90;;;;;;5050757;28;20426;-42
2022/12/22 14:25:53;;;;;;;15.93;12.20;;;10.20;99.90;;;;;;5051262;28;20440;-42
2022/12/22 14:28:37;;;;;;;21.33;12.70;;;10.10;99.90;;;;;;5051256;28;20435;-42
2022/12/22 14:31:05;;;;;;;15.00;11.57;;;10.10;99.90;;;;;;5051110;28;20416;-41
2022/12/22 14:33:33;;;;;;;15.03;11.70;;;10.10;99.90;;;;;;5051160;28;20936;-42
2022/12/22 14:36:22;;;;;;;15.10;12.30;;;10.10;99.90;;;;;;5050884;28;20924;-41
2022/12/22 14:38:56;;;;;;;16.13;11.90;;;10.00;99.90;;;;;;5051043;28;20464;-42
2022/12/22 14:41:41;;;;;;;14.80;12.40;;;10.10;99.90;;;;;;5051061;28;20489;-43
2022/12/22 14:44:25;;;;;;;16.60;11.13;;;10.00;99.90;;;;;;5049497;28;20799;-40
2022/12/22 14:47:19;;;;;;;13.70;10.10;;;10.00;99.90;;;;;;5051235;28;20435;-43
2022/12/22 14:49:59;;;;;;;14.00;10.30;;;9.90;99.90;;;;;;5051197;28;20477;-42
2022/12/22 14:52:45;;;;;;;14.70;10.13;;;9.90;99.90;;;;;;5050626;28;20420;-42
2022/12/22 14:55:28;;;;;;;15.90;10.60;;;9.90;99.90;;;;;;5050292;28;20764;-42
2022/12/22 14:58:13;;;;;;;15.60;11.50;;;9.90;99.90;;;;;;5050808;28;20862;-41
2022/12/22 15:00:41;;;;;;;16.43;11.90;;;9.80;99.90;;;;;;5051013;28;20510;-42
2022/12/22 15:03:32;;;;;;;12.60;10.47;;;9.80;99.90;;;;;;5050155;28;20420;-41
2022/12/22 15:06:20;;;;;;;15.03;10.80;;;9.80;99.90;;;;;;5050578;28;20453;-41
2022/12/22 15:08:46;;;;;;;12.83;10.23;;;9.80;99.90;;;;;;5050645;28;20435;-43
2022/12/22 15:11:17;;;;;;;16.63;12.47;;;9.80;99.90;;;;;;5050190;28;20421;-41
2022/12/22 15:13:45;;;;;;;13.20;11.23;;;9.80;99.90;;;;;;5049857;28;20182;-43
2022/12/22 15:16:21;;;;;;;14.60;12.00;;;9.80;99.90;;;;;;5050204;28;20424;-42
2022/12/22 15:18:48;;;;;;;14.07;11.10;;;9.80;99.90;;;;;;5050433;28;20951;-41
2022/12/22 15:21:16;;;;;;;13.97;10.73;;;9.80;99.90;;;;;;5050191;28;20417;-41
2022/12/22 15:23:43;;;;;;;11.60;9.80;;;9.80;99.90;;;;;;5049361;28;20791;-39
2022/12/22 15:26:09;;;;;;;12.83;9.30;;;9.80;99.90;;;;;;5050334;28;20477;-43
2022/12/22 15:28:35;;;;;;;13.00;9.53;;;9.80;99.90;;;;;;5050055;28;20421;-41
2022/12/22 15:31:02;;;;;;;12.93;11.13;;;9.80;99.90;;;;;;5049597;28;20427;-42
2022/12/22 15:33:29;;;;;;;14.07;9.60;;;9.80;99.90;;;;;;5049260;28;20268;-39
2022/12/22 15:35:54;;;;;;;13.87;9.83;;;9.60;99.90;;;;;;5050531;28;20421;-42
2022/12/22 15:38:23;;;;;;;13.93;10.60;;;9.80;99.90;;;;;;5049453;28;20475;-42
2022/12/22 15:40:49;;;;;;;12.23;10.03;;;9.80;99.90;;;;;;5050031;28;20186;-42
2022/12/22 15:43:16;;;;;;;12.07;9.53;;;9.80;99.90;;;;;;5049719;28;20420;-42
2022/12/22 15:45:43;;;;;;;12.93;9.80;;;9.70;99.90;;;;;;5049034;28;20481;-41
2022/12/22 15:48:13;;;;;;;11.87;10.07;;;9.70;99.90;;;;;;5050356;28;20417;-41
2022/12/22 15:50:43;;;;;;;12.83;9.73;;;9.70;99.90;;;;;;5049412;28;20428;-42
2022/12/22 15:53:15;;;;;;;16.90;11.00;;;9.70;99.90;;;;;;5049333;28;20835;-41
2022/12/22 15:55:43;;;;;;;13.70;9.80;;;9.70;99.90;;;;;;5048030;28;20428;-42
2022/12/22 15:58:12;;;;;;;11.77;9.30;;;9.70;99.90;;;;;;5049776;28;20460;-42
2022/12/22 16:00:38;;;;;;;12.37;9.43;;;9.70;99.90;;;;;;5047747;28;20519;-42
2022/12/22 16:03:05;;;;;;;12.63;9.30;;;9.50;99.90;;;;;;5043460;28;20428;-42
2022/12/22 16:05:34;;;;;;;11.80;9.53;;;9.60;99.90;;;;;;5043621;28;20757;-39
2022/12/22 16:08:01;;;;;;;14.83;9.47;;;9.60;99.90;;;;;;5037066;28;20503;-41
2022/12/22 16:10:29;;;;;;;11.00;8.70;;;9.60;99.90;;;;;;5044246;28;20428;-43
2022/12/22 16:13:01;;;;;;;12.70;9.40;;;9.60;99.90;;;;;;5047344;28;20537;-40
2022/12/22 16:15:30;;;;;;;12.60;9.13;;;9.80;99.90;;;;;;5048941;28;20926;-41
2022/12/22 16:17:56;;;;;;;11.33;9.30;;;9.70;99.90;;;;;;5047332;28;20519;-40
2022/12/22 16:20:23;;;;;;;12.57;9.20;;;9.70;99.90;;;;;;5044287;28;20428;-41
2022/12/22 16:22:50;;;;;;;11.47;9.10;;;9.80;99.90;;;;;;5043612;28;20503;-42
2022/12/22 16:25:22;;;;;;;11.13;9.03;;;9.50;99.90;;;;;;5045191;28;20421;-41
2022/12/22 16:27:49;;;;;;;11.90;8.40;;;9.60;99.90;;;;;;5047289;28;20431;-39
2022/12/22 16:30:23;;;;;;;9.20;7.77;;;9.70;99.90;;;;;;5044787;28;20417;-42
2022/12/22 16:32:49;;;;;;;11.33;8.97;;;9.60;99.90;;;;;;5044636;28;20681;-42
2022/12/22 16:35:22;;;;;;;11.83;8.63;;;9.60;99.90;;;;;;5046392;28;20416;-39
2022/12/22 16:37:48;;;;;;;11.20;8.80;;;9.60;99.90;;;;;;5047644;28;20896;-41